Time;durP1;ratioP1;P1;durP2;ratioP2;P2;SDS_P1;SDS_P2;PMS_P1;PMS_P2;Temp;Humidity;BMP_temperature;BMP_pressure;BME280_temperature;BME280_humidity;BME280_pressure;Samples;Min_cycle;Max_cycle;Signal;HPM_P1;HPM_P2
2023/05/10 00:01:52;;;;;;;7.40;4.70;;;13.70;68.00;;;;;;5026115;28;20229;-75
2023/05/10 00:04:18;;;;;;;5.90;4.90;;;13.70;68.40;;;;;;5027172;28;20265;-74
2023/05/10 00:06:43;;;;;;;5.93;4.40;;;13.60;68.80;;;;;;5028199;28;20879;-74
2023/05/10 00:09:09;;;;;;;5.13;3.93;;;13.60;69.00;;;;;;5027451;28;20660;-74
2023/05/10 00:11:34;;;;;;;5.80;4.33;;;13.70;69.20;;;;;;5027186;28;20184;-74
2023/05/10 00:14:00;;;;;;;5.30;4.27;;;13.60;69.90;;;;;;5027377;28;20683;-74
2023/05/10 00:16:25;;;;;;;6.47;4.97;;;13.60;69.70;;;;;;5026036;28;20211;-74
2023/05/10 00:18:53;;;;;;;5.10;4.43;;;13.60;70.20;;;;;;5030398;28;20217;-74
2023/05/10 00:21:19;;;;;;;5.53;4.50;;;13.50;70.20;;;;;;5024558;28;20823;-74
2023/05/10 00:23:45;;;;;;;5.67;4.90;;;13.60;70.50;;;;;;5027808;28;20226;-74
2023/05/10 00:26:10;;;;;;;5.37;4.87;;;13.50;70.70;;;;;;5027961;28;20203;-74
2023/05/10 00:28:36;;;;;;;5.73;4.63;;;13.50;70.90;;;;;;5025511;28;20313;-72
2023/05/10 00:31:02;;;;;;;7.10;5.30;;;13.50;71.40;;;;;;5026379;28;20199;-74
2023/05/10 00:33:30;;;;;;;4.70;4.30;;;13.40;71.50;;;;;;5027139;28;20293;-73
2023/05/10 00:35:56;;;;;;;5.97;4.23;;;13.40;72.00;;;;;;5029473;28;20202;-73
2023/05/10 00:38:21;;;;;;;5.40;4.40;;;13.40;72.20;;;;;;5024164;28;20527;-73
2023/05/10 00:40:47;;;;;;;5.77;4.63;;;13.40;72.20;;;;;;5024662;28;20195;-73
2023/05/10 00:43:12;;;;;;;5.47;4.77;;;13.40;72.60;;;;;;5027744;28;20227;-74
2023/05/10 00:45:41;;;;;;;5.70;4.30;;;13.30;72.80;;;;;;5026187;28;20228;-73
2023/05/10 00:48:06;;;;;;;4.50;4.10;;;13.30;73.40;;;;;;5026593;28;20192;-74
2023/05/10 00:50:33;;;;;;;6.30;4.80;;;13.30;73.80;;;;;;5025396;28;20684;-74
2023/05/10 00:53:02;;;;;;;5.83;5.23;;;13.30;73.90;;;;;;5024309;28;20585;-73
2023/05/10 00:55:28;;;;;;;7.43;5.30;;;13.20;74.40;;;;;;5023923;28;20195;-74
2023/05/10 00:57:54;;;;;;;7.57;5.47;;;13.20;74.70;;;;;;5027723;28;20206;-74
2023/05/10 01:00:20;;;;;;;5.87;5.20;;;13.20;74.90;;;;;;5025744;28;20223;-74
2023/05/10 01:02:46;;;;;;;6.40;4.87;;;13.20;75.00;;;;;;5025946;28;20199;-74
2023/05/10 01:05:12;;;;;;;5.17;4.67;;;13.10;75.70;;;;;;5023985;28;20191;-75
2023/05/10 01:07:38;;;;;;;7.23;5.80;;;13.10;76.80;;;;;;5022967;28;20206;-73
2023/05/10 01:10:06;;;;;;;6.00;5.10;;;12.90;76.20;;;;;;5029931;28;20210;-74
2023/05/10 01:12:34;;;;;;;6.03;5.53;;;12.90;77.40;;;;;;5024801;28;20192;-74
2023/05/10 01:15:01;;;;;;;6.73;5.93;;;12.90;77.50;;;;;;5025939;28;20206;-75
2023/05/10 01:17:27;;;;;;;6.33;5.53;;;12.90;77.70;;;;;;5024517;28;20889;-74
2023/05/10 01:19:52;;;;;;;9.67;5.70;;;12.90;78.20;;;;;;5026964;28;20265;-73
2023/05/10 01:22:56;;;;;;;5.30;4.90;;;12.90;77.90;;;;;;5023476;28;21003;-75
2023/05/10 01:25:52;;;;;;;5.90;5.33;;;12.90;78.20;;;;;;5022064;28;20218;-75
2023/05/10 01:28:38;;;;;;;5.83;5.23;;;12.70;79.00;;;;;;5023494;28;20468;-75
2023/05/10 01:31:21;;;;;;;7.07;6.37;;;12.70;79.60;;;;;;5020405;28;20253;-75
2023/05/10 01:33:54;;;;;;;7.03;5.50;;;12.70;79.20;;;;;;5021583;28;20252;-75
2023/05/10 01:36:40;;;;;;;5.70;5.10;;;12.70;79.60;;;;;;5026164;28;20196;-74
2023/05/10 01:39:32;;;;;;;5.80;4.83;;;12.70;80.40;;;;;;5018673;28;20264;-75
2023/05/10 01:42:10;;;;;;;8.13;5.40;;;12.70;80.10;;;;;;5034834;28;20281;-75
2023/05/10 01:44:56;;;;;;;8.83;5.43;;;12.50;80.90;;;;;;5034379;28;20217;-74
2023/05/10 01:47:38;;;;;;;6.03;5.47;;;12.50;81.60;;;;;;5035748;28;20679;-75
2023/05/10 01:50:10;;;;;;;5.50;5.00;;;12.50;82.20;;;;;;5035511;28;20210;-74
2023/05/10 01:52:43;;;;;;;5.30;4.90;;;12.50;82.50;;;;;;5026767;28;20210;-75
2023/05/10 01:55:13;;;;;;;8.03;5.63;;;12.50;82.70;;;;;;5030363;28;20674;-74
2023/05/10 01:57:42;;;;;;;6.37;5.30;;;12.40;82.70;;;;;;5027545;28;20202;-74
2023/05/10 02:00:09;;;;;;;7.27;5.60;;;12.40;83.30;;;;;;5026320;28;20198;-74
2023/05/10 02:02:42;;;;;;;6.10;5.30;;;12.40;83.60;;;;;;5036078;28;20194;-74
2023/05/10 02:05:08;;;;;;;8.10;5.47;;;12.20;84.40;;;;;;5037785;28;20214;-75
2023/05/10 02:07:36;;;;;;;4.77;4.37;;;12.30;85.20;;;;;;5039951;28;20201;-75
2023/05/10 02:10:04;;;;;;;8.83;5.90;;;12.30;85.40;;;;;;5039675;28;20683;-74
2023/05/10 02:12:31;;;;;;;6.00;4.83;;;12.20;86.10;;;;;;5039368;28;20279;-74
2023/05/10 02:14:59;;;;;;;6.30;5.70;;;12.20;85.90;;;;;;5040015;28;20974;-76
2023/05/10 02:17:25;;;;;;;5.37;4.87;;;12.10;86.80;;;;;;5038832;28;20218;-73
2023/05/10 02:19:51;;;;;;;8.90;5.80;;;12.10;87.50;;;;;;5039522;28;20364;-75
2023/05/10 02:22:19;;;;;;;5.37;4.83;;;12.00;87.80;;;;;;5039645;28;20621;-76
2023/05/10 02:24:46;;;;;;;6.53;4.90;;;12.00;88.30;;;;;;5027917;28;20286;-74
2023/05/10 02:27:13;;;;;;;6.07;4.80;;;12.00;89.30;;;;;;5028929;28;20267;-74
2023/05/10 02:29:39;;;;;;;5.83;5.27;;;11.90;89.70;;;;;;5028983;28;20230;-74
2023/05/10 02:32:05;;;;;;;5.73;5.23;;;11.90;90.00;;;;;;5032566;28;20529;-75
2023/05/10 02:34:32;;;;;;;5.17;4.77;;;11.90;90.40;;;;;;5033049;28;20228;-75
2023/05/10 02:36:59;;;;;;;7.87;5.27;;;11.90;90.30;;;;;;5023710;28;20302;-74
2023/05/10 02:39:26;;;;;;;5.97;5.30;;;12.00;90.40;;;;;;5029442;28;20263;-74
2023/05/10 02:41:53;;;;;;;6.30;4.70;;;11.90;90.80;;;;;;5029768;28;20202;-74
2023/05/10 02:44:19;;;;;;;5.10;4.60;;;11.90;91.00;;;;;;5030238;28;20558;-74
2023/05/10 02:46:46;;;;;;;6.67;5.37;;;11.80;91.10;;;;;;5026969;28;20198;-75
2023/05/10 02:49:12;;;;;;;5.43;4.40;;;11.90;91.10;;;;;;5028757;28;20622;-74
2023/05/10 02:51:43;;;;;;;4.73;4.33;;;11.70;91.30;;;;;;5029148;28;20202;-74
2023/05/10 02:54:19;;;;;;;7.50;5.20;;;11.70;91.60;;;;;;5027246;28;20202;-74
2023/05/10 02:56:53;;;;;;;5.50;4.97;;;11.50;92.00;;;;;;5019497;28;20217;-74
2023/05/10 02:59:19;;;;;;;6.33;5.70;;;11.50;92.60;;;;;;5027112;28;20537;-73
2023/05/10 03:01:44;;;;;;;9.33;5.17;;;11.60;92.60;;;;;;5028142;28;20612;-74
2023/05/10 03:04:10;;;;;;;6.00;4.90;;;11.60;92.80;;;;;;5026952;28;20740;-74
2023/05/10 03:06:36;;;;;;;5.40;4.90;;;11.60;92.90;;;;;;5029198;28;20201;-74
2023/05/10 03:09:02;;;;;;;6.03;5.10;;;11.60;93.00;;;;;;5028249;28;20212;-74
2023/05/10 03:11:48;;;;;;;5.53;4.30;;;11.50;93.50;;;;;;5026293;28;20280;-74
2023/05/10 03:14:39;;;;;;;5.97;5.37;;;11.50;93.50;;;;;;5023144;28;20612;-74
2023/05/10 03:17:19;;;;;;;5.10;4.63;;;11.40;93.90;;;;;;5025132;28;20761;-74
2023/05/10 03:20:03;;;;;;;5.67;4.43;;;11.40;94.00;;;;;;5026785;28;20224;-76
2023/05/10 03:22:45;;;;;;;5.97;4.73;;;11.40;94.00;;;;;;5028992;28;20205;-74
2023/05/10 03:25:11;;;;;;;7.97;4.97;;;11.30;94.60;;;;;;5025450;28;20761;-75
2023/05/10 03:27:40;;;;;;;5.97;4.77;;;11.40;94.00;;;;;;5026426;28;20222;-74
2023/05/10 03:30:08;;;;;;;5.87;4.17;;;11.40;94.10;;;;;;5031643;28;20317;-75
2023/05/10 03:32:34;;;;;;;5.70;4.10;;;11.40;94.30;;;;;;5022275;28;20289;-74
2023/05/10 03:35:00;;;;;;;7.97;4.90;;;11.40;94.40;;;;;;5028741;28;20270;-75
2023/05/10 03:37:25;;;;;;;4.90;4.50;;;11.40;94.30;;;;;;5028461;28;20200;-73
2023/05/10 03:39:51;;;;;;;7.57;4.73;;;11.40;94.40;;;;;;5028421;28;20271;-74
2023/05/10 03:42:17;;;;;;;5.53;4.80;;;11.40;94.50;;;;;;5028653;28;20206;-75
2023/05/10 03:44:43;;;;;;;7.00;4.60;;;11.50;94.60;;;;;;5028663;28;20722;-74
2023/05/10 03:47:08;;;;;;;6.10;4.60;;;11.40;94.30;;;;;;5027002;28;20229;-74
2023/05/10 03:49:34;;;;;;;6.73;4.83;;;11.40;94.50;;;;;;5029130;28;20205;-74
2023/05/10 03:51:59;;;;;;;5.67;4.63;;;11.40;94.50;;;;;;5026644;28;20593;-74
2023/05/10 03:54:25;;;;;;;7.37;4.60;;;11.40;94.50;;;;;;5027850;28;20227;-74
2023/05/10 03:56:51;;;;;;;5.20;4.60;;;11.40;94.30;;;;;;5027908;28;20698;-75
2023/05/10 03:59:16;;;;;;;5.63;5.13;;;11.40;94.80;;;;;;5024680;28;20264;-76
2023/05/10 04:01:41;;;;;;;5.37;4.23;;;11.40;94.90;;;;;;5028064;28;20204;-75
2023/05/10 04:04:07;;;;;;;6.37;4.57;;;11.30;94.80;;;;;;5028441;28;20217;-75
2023/05/10 04:06:32;;;;;;;5.87;4.47;;;11.30;95.20;;;;;;5028380;28;21034;-76
2023/05/10 04:09:00;;;;;;;5.47;4.33;;;11.40;94.90;;;;;;5028994;28;20201;-75
2023/05/10 04:11:26;;;;;;;6.33;4.33;;;11.30;94.70;;;;;;5028609;28;20198;-75
2023/05/10 04:13:51;;;;;;;4.33;3.93;;;11.30;94.80;;;;;;5025949;28;20211;-75
2023/05/10 04:16:17;;;;;;;4.03;3.63;;;11.30;95.00;;;;;;5026950;28;20630;-75
2023/05/10 04:18:42;;;;;;;4.73;4.07;;;11.30;94.90;;;;;;5027628;28;20190;-75
2023/05/10 04:21:13;;;;;;;6.93;3.77;;;11.40;94.90;;;;;;5030732;28;20492;-75
2023/05/10 04:23:38;;;;;;;4.37;3.97;;;11.40;94.60;;;;;;5023224;28;20213;-75
2023/05/10 04:26:04;;;;;;;4.90;4.27;;;11.30;94.70;;;;;;5026911;28;20795;-75
2023/05/10 04:28:30;;;;;;;5.80;4.53;;;11.30;95.10;;;;;;5027761;28;20585;-75
2023/05/10 04:31:02;;;;;;;4.47;4.07;;;11.30;95.00;;;;;;5027667;28;20197;-74
2023/05/10 04:33:28;;;;;;;5.57;4.03;;;11.30;94.90;;;;;;5027412;28;20225;-74
2023/05/10 04:35:54;;;;;;;4.53;3.83;;;11.40;94.90;;;;;;5026539;28;20202;-75
2023/05/10 04:38:22;;;;;;;4.53;3.97;;;11.30;95.20;;;;;;5022527;28;20204;-75
2023/05/10 04:40:48;;;;;;;4.90;4.20;;;11.40;94.90;;;;;;5025500;28;20430;-75
2023/05/10 04:43:13;;;;;;;4.57;3.80;;;11.50;94.80;;;;;;5025404;28;20865;-75
2023/05/10 04:45:39;;;;;;;6.27;3.77;;;11.50;94.70;;;;;;5026346;28;20740;-75
2023/05/10 04:48:05;;;;;;;5.10;4.27;;;11.60;94.30;;;;;;5026793;28;20298;-75
2023/05/10 04:50:31;;;;;;;4.70;4.07;;;11.60;94.30;;;;;;5030414;28;20312;-75
2023/05/10 04:52:57;;;;;;;5.53;3.50;;;11.60;94.50;;;;;;5024695;28;20235;-75
2023/05/10 04:55:22;;;;;;;5.83;4.63;;;11.60;94.70;;;;;;5027109;28;20198;-75
2023/05/10 04:57:48;;;;;;;4.77;4.23;;;11.70;94.20;;;;;;5025735;28;20192;-76
2023/05/10 05:00:14;;;;;;;5.10;4.60;;;11.70;94.20;;;;;;5026903;28;20693;-75
2023/05/10 05:02:43;;;;;;;7.00;4.00;;;11.70;94.10;;;;;;5021855;28;20191;-75
2023/05/10 05:05:09;;;;;;;3.50;3.20;;;11.80;94.30;;;;;;5027604;28;20672;-76
2023/05/10 05:07:34;;;;;;;5.33;4.33;;;11.90;93.80;;;;;;5023819;28;20206;-74
2023/05/10 05:10:00;;;;;;;4.67;3.60;;;11.90;94.00;;;;;;5024916;28;20196;-76
2023/05/10 05:12:25;;;;;;;5.73;4.53;;;12.00;93.60;;;;;;5024587;28;20294;-73
2023/05/10 05:14:51;;;;;;;4.37;3.87;;;12.00;93.40;;;;;;5027067;28;20227;-75
2023/05/10 05:17:16;;;;;;;4.43;3.73;;;12.00;93.60;;;;;;5026700;28;20560;-75
2023/05/10 05:19:42;;;;;;;4.37;3.60;;;12.20;93.40;;;;;;5036238;28;20202;-75
2023/05/10 05:22:08;;;;;;;5.87;4.13;;;12.30;92.90;;;;;;5035375;28;20923;-75
2023/05/10 05:24:37;;;;;;;3.47;3.13;;;12.30;92.80;;;;;;5036193;28;20213;-74
2023/05/10 05:27:03;;;;;;;4.37;3.43;;;12.40;92.70;;;;;;5034357;28;20197;-73
2023/05/10 05:29:29;;;;;;;4.23;3.83;;;12.40;92.80;;;;;;5035802;28;20242;-74
2023/05/10 05:31:55;;;;;;;3.83;3.53;;;12.50;92.80;;;;;;5036030;28;20594;-75
2023/05/10 05:34:21;;;;;;;3.93;3.53;;;12.50;92.40;;;;;;5036288;28;20221;-78
2023/05/10 05:36:47;;;;;;;6.20;3.50;;;12.60;92.40;;;;;;5034735;28;20702;-76
2023/05/10 05:39:12;;;;;;;4.17;3.77;;;12.70;92.20;;;;;;5029946;28;20202;-75
2023/05/10 05:41:38;;;;;;;4.07;3.67;;;12.80;92.20;;;;;;5031506;28;20209;-74
2023/05/10 05:44:03;;;;;;;4.00;3.70;;;12.80;92.30;;;;;;5036075;28;20206;-74
2023/05/10 05:46:29;;;;;;;8.87;3.80;;;13.00;91.80;;;;;;5036338;28;20216;-76
2023/05/10 05:48:54;;;;;;;3.47;3.07;;;13.10;91.60;;;;;;5034921;28;20259;-74
2023/05/10 05:51:20;;;;;;;6.67;3.87;;;13.20;91.30;;;;;;5024691;28;20280;-75
2023/05/10 05:53:45;;;;;;;3.83;3.27;;;13.20;91.40;;;;;;5026416;28;20222;-74
2023/05/10 05:56:11;;;;;;;4.57;3.27;;;13.30;91.20;;;;;;5026235;28;20688;-75
2023/05/10 05:58:36;;;;;;;6.70;3.90;;;13.30;91.00;;;;;;5034160;28;20206;-74
2023/05/10 06:01:02;;;;;;;4.40;3.30;;;13.40;90.90;;;;;;5032445;28;20195;-74
2023/05/10 06:03:27;;;;;;;6.37;3.40;;;13.50;90.80;;;;;;5026824;28;20211;-74
2023/05/10 06:05:53;;;;;;;4.70;3.57;;;13.60;90.90;;;;;;5031216;28;20214;-75
2023/05/10 06:08:18;;;;;;;7.17;2.77;;;13.70;90.70;;;;;;5029384;28;20749;-75
2023/05/10 06:10:45;;;;;;;5.07;2.93;;;13.80;90.30;;;;;;5023921;28;20249;-74
2023/05/10 06:13:10;;;;;;;5.17;3.40;;;13.80;90.20;;;;;;5027220;28;20552;-75
2023/05/10 06:15:36;;;;;;;3.10;2.90;;;13.80;90.30;;;;;;5026661;28;20202;-75
2023/05/10 06:18:01;;;;;;;3.80;3.37;;;13.80;90.50;;;;;;5026619;28;20202;-75
2023/05/10 06:20:27;;;;;;;6.53;3.33;;;13.90;90.40;;;;;;5024035;28;20207;-75
2023/05/10 06:22:52;;;;;;;4.90;3.50;;;14.00;90.50;;;;;;5024818;28;20198;-75
2023/05/10 06:25:18;;;;;;;3.63;2.77;;;14.00;90.00;;;;;;5025585;28;21301;-75
2023/05/10 06:27:44;;;;;;;7.47;3.70;;;14.00;90.00;;;;;;5025726;28;20219;-75
2023/05/10 06:30:11;;;;;;;5.33;2.73;;;14.00;90.00;;;;;;5025233;28;20358;-76
2023/05/10 06:32:36;;;;;;;3.47;2.83;;;14.10;90.10;;;;;;5024004;28;20289;-74
2023/05/10 06:35:02;;;;;;;4.27;3.13;;;14.20;90.00;;;;;;5029148;28;20286;-75
2023/05/10 06:37:28;;;;;;;3.10;2.80;;;14.30;89.70;;;;;;5022920;28;20200;-76
2023/05/10 06:39:53;;;;;;;3.63;2.90;;;14.40;90.10;;;;;;5025960;28;20203;-75
2023/05/10 06:42:19;;;;;;;4.23;3.13;;;14.50;89.60;;;;;;5026393;28;20199;-75
2023/05/10 06:44:44;;;;;;;3.87;2.87;;;14.50;89.40;;;;;;5023428;28;20322;-80
2023/05/10 06:47:10;;;;;;;3.37;3.07;;;14.60;89.00;;;;;;5025247;28;20195;-76
2023/05/10 06:49:35;;;;;;;5.47;3.17;;;14.60;89.00;;;;;;5026055;28;20239;-81
2023/05/10 06:52:00;;;;;;;2.47;2.27;;;14.60;89.00;;;;;;5031840;28;20876;-81
2023/05/10 06:54:26;;;;;;;5.27;3.07;;;14.70;88.50;;;;;;5025638;28;20299;-82
2023/05/10 06:56:52;;;;;;;3.60;2.50;;;14.80;88.30;;;;;;5035914;28;20521;-81
2023/05/10 06:59:19;;;;;;;4.47;2.50;;;14.90;88.50;;;;;;5038673;28;20648;-82
2023/05/10 07:01:44;;;;;;;2.67;2.47;;;15.00;87.40;;;;;;5040062;28;20547;-81
2023/05/10 07:04:10;;;;;;;4.03;3.00;;;15.10;87.40;;;;;;5029010;28;20328;-79
2023/05/10 07:06:35;;;;;;;2.93;2.37;;;15.10;87.30;;;;;;5039600;28;20195;-81
2023/05/10 07:09:01;;;;;;;2.57;2.33;;;15.10;86.00;;;;;;5035365;28;20209;-80
2023/05/10 07:11:27;;;;;;;4.33;2.07;;;15.20;86.40;;;;;;5028222;28;20219;-81
2023/05/10 07:13:52;;;;;;;4.63;2.70;;;15.20;85.60;;;;;;5033122;28;20252;-82
2023/05/10 07:16:18;;;;;;;3.10;2.90;;;15.30;85.90;;;;;;5027408;28;20202;-81
2023/05/10 07:18:43;;;;;;;2.83;2.50;;;15.30;86.10;;;;;;5029186;28;22391;-82
2023/05/10 07:21:09;;;;;;;3.33;2.80;;;15.50;85.80;;;;;;5029183;28;20199;-79
2023/05/10 07:23:34;;;;;;;3.57;3.27;;;15.60;85.30;;;;;;5028643;28;20218;-80
2023/05/10 07:26:00;;;;;;;2.70;2.23;;;15.60;85.00;;;;;;5027825;28;20278;-79
2023/05/10 07:28:25;;;;;;;2.83;2.63;;;15.70;85.00;;;;;;5033888;28;20253;-79
2023/05/10 07:30:51;;;;;;;2.70;2.43;;;15.80;85.60;;;;;;5033945;28;20294;-81
2023/05/10 07:33:17;;;;;;;3.03;2.63;;;15.80;84.20;;;;;;5028201;28;20764;-79
2023/05/10 07:35:42;;;;;;;4.80;2.47;;;15.80;84.20;;;;;;5027513;28;20202;-79
2023/05/10 07:38:08;;;;;;;10.40;3.17;;;15.90;83.80;;;;;;5028640;28;20653;-79
2023/05/10 07:40:34;;;;;;;4.23;2.80;;;15.90;83.80;;;;;;5026769;28;20218;-79
2023/05/10 07:43:01;;;;;;;2.50;2.30;;;15.90;83.70;;;;;;5029782;28;20671;-79
2023/05/10 07:45:27;;;;;;;6.30;2.60;;;16.00;84.00;;;;;;5026465;28;20652;-79
2023/05/10 07:47:52;;;;;;;2.70;2.50;;;16.10;83.40;;;;;;5036045;28;20209;-78
2023/05/10 07:50:18;;;;;;;2.73;2.53;;;16.10;82.80;;;;;;5038628;28;20187;-80
2023/05/10 07:52:47;;;;;;;3.40;3.10;;;16.40;84.10;;;;;;5036427;28;20209;-76
2023/05/10 07:55:12;;;;;;;3.57;2.40;;;16.50;82.70;;;;;;5041091;28;20213;-80
2023/05/10 07:57:38;;;;;;;3.20;2.20;;;16.70;82.80;;;;;;5035156;28;20626;-80
2023/05/10 08:00:04;;;;;;;2.57;2.33;;;16.60;81.20;;;;;;5030329;28;20269;-81
2023/05/10 08:02:30;;;;;;;4.27;2.63;;;16.80;81.00;;;;;;5037603;28;20202;-80
2023/05/10 08:04:55;;;;;;;2.50;2.30;;;16.60;81.30;;;;;;5035633;28;20555;-78
2023/05/10 08:07:21;;;;;;;3.87;2.37;;;16.70;81.20;;;;;;5037840;28;20278;-80
2023/05/10 08:09:46;;;;;;;4.60;3.13;;;16.70;81.10;;;;;;5038622;28;20195;-74
2023/05/10 08:12:12;;;;;;;2.30;2.13;;;16.80;81.00;;;;;;5038841;28;20574;-81
2023/05/10 08:14:37;;;;;;;2.70;2.50;;;17.00;80.80;;;;;;5028108;28;20290;-79
2023/05/10 08:17:03;;;;;;;5.80;2.60;;;17.00;80.40;;;;;;5033420;28;20210;-79
2023/05/10 08:19:29;;;;;;;2.20;2.00;;;17.20;81.30;;;;;;5040639;28;20210;-77
2023/05/10 08:21:55;;;;;;;3.63;2.67;;;17.30;81.30;;;;;;5037384;28;20198;-76
2023/05/10 08:24:21;;;;;;;2.83;2.30;;;17.40;80.30;;;;;;5031889;28;20272;-84
2023/05/10 08:26:47;;;;;;;3.47;2.67;;;17.40;78.60;;;;;;5044183;28;20281;-81
2023/05/10 08:29:13;;;;;;;2.57;2.33;;;17.40;78.90;;;;;;5034682;28;20638;-76
2023/05/10 08:31:39;;;;;;;5.10;2.43;;;17.40;80.30;;;;;;5026240;28;20278;-76
2023/05/10 08:34:04;;;;;;;3.47;2.47;;;17.40;79.10;;;;;;5038135;28;20223;-77
2023/05/10 08:36:30;;;;;;;4.40;2.63;;;17.50;78.60;;;;;;5028538;28;20747;-76
2023/05/10 08:38:55;;;;;;;3.63;2.30;;;17.40;80.00;;;;;;5037765;28;20202;-76
2023/05/10 08:41:23;;;;;;;3.40;2.83;;;17.60;79.80;;;;;;5035837;28;20568;-76
2023/05/10 08:43:50;;;;;;;2.37;2.17;;;17.70;80.40;;;;;;5023654;28;20262;-75
2023/05/10 08:46:17;;;;;;;3.80;2.73;;;17.80;77.60;;;;;;5033681;28;20290;-78
2023/05/10 08:48:44;;;;;;;2.33;2.13;;;17.80;77.30;;;;;;5038781;28;20325;-81
2023/05/10 08:51:14;;;;;;;3.80;2.60;;;17.90;78.40;;;;;;5039655;28;20203;-79
2023/05/10 08:53:40;;;;;;;5.07;2.60;;;18.10;77.00;;;;;;5038776;28;20214;-80
2023/05/10 08:56:06;;;;;;;2.57;2.37;;;17.90;76.80;;;;;;5020075;28;20586;-80
2023/05/10 08:58:31;;;;;;;2.50;2.30;;;17.90;77.20;;;;;;5026537;28;20199;-80
2023/05/10 09:00:58;;;;;;;3.67;2.73;;;17.90;76.70;;;;;;5028322;28;20204;-79
2023/05/10 09:03:24;;;;;;;4.13;2.50;;;17.90;77.20;;;;;;5030702;28;20253;-81
2023/05/10 09:05:49;;;;;;;4.37;2.93;;;18.00;77.60;;;;;;5036692;28;20677;-80
2023/05/10 09:08:18;;;;;;;3.37;2.50;;;18.20;76.40;;;;;;5037413;28;20223;-81
2023/05/10 09:10:46;;;;;;;4.17;3.17;;;18.30;78.10;;;;;;5030500;28;20342;-78
2023/05/10 09:13:13;;;;;;;3.23;2.80;;;18.40;78.10;;;;;;5034432;28;20211;-79
2023/05/10 09:15:39;;;;;;;3.37;2.90;;;18.50;75.50;;;;;;5035112;28;20199;-80
2023/05/10 09:18:05;;;;;;;5.33;2.70;;;18.50;76.00;;;;;;5036443;28;20211;-76
2023/05/10 09:20:30;;;;;;;3.17;2.80;;;18.60;75.60;;;;;;5034862;28;20199;-74
2023/05/10 09:22:56;;;;;;;2.63;2.20;;;18.60;75.50;;;;;;5030119;28;20201;-75
2023/05/10 09:25:22;;;;;;;3.43;2.57;;;18.60;75.80;;;;;;5036499;28;20214;-75
2023/05/10 09:27:48;;;;;;;3.77;3.40;;;18.80;76.00;;;;;;5032498;28;20293;-76
2023/05/10 09:30:24;;;;;;;2.60;2.40;;;18.80;74.90;;;;;;5025400;28;20227;-84
2023/05/10 09:32:50;;;;;;;3.03;2.83;;;18.80;76.00;;;;;;5029665;28;20220;-78
2023/05/10 09:35:18;;;;;;;3.30;2.90;;;19.00;74.30;;;;;;5035366;28;20205;-78
2023/05/10 09:37:49;;;;;;;8.10;2.60;;;19.10;75.70;;;;;;5035137;28;20201;-76
2023/05/10 09:40:19;;;;;;;3.03;2.83;;;19.20;74.80;;;;;;5030724;28;20209;-77
2023/05/10 09:42:58;;;;;;;4.37;2.67;;;19.30;75.50;;;;;;5035104;28;20224;-79
2023/05/10 09:45:27;;;;;;;4.03;2.60;;;19.40;74.80;;;;;;5037902;28;20223;-82
2023/05/10 09:47:53;;;;;;;2.87;2.53;;;19.50;74.00;;;;;;5033848;28;20883;-81
2023/05/10 09:50:20;;;;;;;4.63;2.70;;;19.50;74.00;;;;;;5037982;28;20199;-79
2023/05/10 09:52:51;;;;;;;2.73;2.50;;;19.50;73.50;;;;;;5017227;28;20890;-79
2023/05/10 09:55:18;;;;;;;5.57;3.17;;;19.50;73.30;;;;;;5027252;28;20207;-77
2023/05/10 09:57:44;;;;;;;2.57;2.23;;;19.70;72.50;;;;;;5023397;28;20201;-77
2023/05/10 10:00:10;;;;;;;2.40;2.20;;;19.70;72.30;;;;;;5022930;28;20555;-82
2023/05/10 10:02:36;;;;;;;3.83;2.00;;;19.60;72.40;;;;;;5021281;28;20198;-77
2023/05/10 10:05:02;;;;;;;3.57;2.17;;;19.60;72.50;;;;;;5026578;28;20222;-78
2023/05/10 10:07:28;;;;;;;5.63;3.20;;;19.70;72.60;;;;;;5029624;28;20204;-78
2023/05/10 10:09:54;;;;;;;2.77;2.57;;;19.70;71.10;;;;;;5026748;28;20212;-81
2023/05/10 10:12:20;;;;;;;4.30;2.50;;;20.00;71.60;;;;;;5032784;28;20537;-79
2023/05/10 10:14:50;;;;;;;2.67;2.37;;;20.00;72.10;;;;;;5027152;28;20519;-80
2023/05/10 10:17:16;;;;;;;3.67;2.33;;;20.00;70.90;;;;;;5026080;28;20213;-79
2023/05/10 10:19:42;;;;;;;2.40;2.20;;;20.10;70.00;;;;;;5024318;28;20673;-72
2023/05/10 10:22:07;;;;;;;5.00;2.47;;;20.10;70.40;;;;;;5035464;28;20205;-80
2023/05/10 10:24:33;;;;;;;3.20;2.50;;;20.20;70.70;;;;;;5028590;28;20260;-77
2023/05/10 10:27:27;;;;;;;3.60;2.83;;;20.20;69.00;;;;;;5028545;28;20237;-77
2023/05/10 10:30:11;;;;;;;3.20;2.90;;;20.10;70.00;;;;;;5027732;28;20292;-77
2023/05/10 10:32:56;;;;;;;4.07;2.43;;;20.20;69.90;;;;;;5030320;28;20748;-76
2023/05/10 10:35:21;;;;;;;3.17;2.70;;;20.20;69.80;;;;;;5024538;28;20202;-77
2023/05/10 10:37:51;;;;;;;4.20;2.20;;;20.20;70.30;;;;;;5032079;28;20695;-78
2023/05/10 10:40:33;;;;;;;3.17;2.70;;;20.30;69.20;;;;;;5023935;28;20198;-78
2023/05/10 10:43:23;;;;;;;3.87;3.47;;;20.30;67.50;;;;;;5030258;28;20229;-77
2023/05/10 10:46:09;;;;;;;5.77;3.17;;;20.30;68.30;;;;;;5026561;28;20765;-76
2023/05/10 10:48:35;;;;;;;3.70;3.40;;;20.40;66.80;;;;;;5026957;28;20198;-77
2023/05/10 10:51:02;;;;;;;6.40;4.60;;;20.40;66.60;;;;;;5039829;28;20236;-77
2023/05/10 10:53:28;;;;;;;3.20;2.67;;;20.60;69.20;;;;;;5035869;28;22340;-79
2023/05/10 10:56:07;;;;;;;2.80;2.60;;;20.80;68.90;;;;;;5033343;28;20554;-78
2023/05/10 10:58:34;;;;;;;3.17;2.67;;;21.10;66.80;;;;;;5033320;28;20364;-76
2023/05/10 11:01:18;;;;;;;6.33;2.73;;;21.30;64.70;;;;;;5036571;28;20213;-77
2023/05/10 11:04:05;;;;;;;9.80;3.20;;;21.30;65.00;;;;;;5034613;28;20218;-77
2023/05/10 11:06:32;;;;;;;2.83;2.50;;;21.40;64.90;;;;;;5033476;28;20206;-79
2023/05/10 11:08:58;;;;;;;2.83;2.30;;;21.50;64.50;;;;;;5034347;28;20220;-76
2023/05/10 11:11:23;;;;;;;5.33;2.20;;;21.60;63.50;;;;;;5031699;28;20530;-77
2023/05/10 11:13:49;;;;;;;3.67;2.67;;;21.80;63.50;;;;;;5036964;28;20233;-76
2023/05/10 11:16:21;;;;;;;4.70;2.27;;;22.10;63.30;;;;;;5039502;28;20206;-77
2023/05/10 11:19:03;;;;;;;4.40;2.57;;;22.30;63.10;;;;;;5039310;28;20218;-77
2023/05/10 11:21:30;;;;;;;4.60;2.57;;;22.50;61.50;;;;;;5038277;28;20221;-77
2023/05/10 11:23:57;;;;;;;2.13;2.03;;;22.40;61.10;;;;;;5024683;28;20226;-77
2023/05/10 11:26:25;;;;;;;2.60;2.40;;;22.20;62.70;;;;;;5035376;28;20202;-77
2023/05/10 11:28:55;;;;;;;3.23;2.30;;;22.30;62.50;;;;;;5036078;28;20234;-77
2023/05/10 11:31:21;;;;;;;2.97;2.70;;;22.40;60.60;;;;;;5028524;28;20198;-78
2023/05/10 11:33:49;;;;;;;3.83;2.73;;;22.50;60.70;;;;;;5036606;28;20225;-77
2023/05/10 11:36:20;;;;;;;3.03;2.10;;;22.70;61.20;;;;;;5033431;28;20271;-77
2023/05/10 11:38:46;;;;;;;3.87;2.53;;;22.90;60.60;;;;;;5029216;28;20234;-78
2023/05/10 11:41:12;;;;;;;3.80;2.27;;;22.90;60.20;;;;;;5038865;28;20230;-77
2023/05/10 11:43:39;;;;;;;4.43;1.93;;;23.30;58.20;;;;;;5036758;28;20226;-77
2023/05/10 11:46:10;;;;;;;3.00;2.60;;;23.50;58.40;;;;;;5029355;28;20306;-77
2023/05/10 11:48:36;;;;;;;2.60;2.40;;;23.50;58.70;;;;;;5038308;28;20294;-78
2023/05/10 11:51:02;;;;;;;4.28;2.83;;;23.50;57.30;;;;;;5037935;28;20751;-77
2023/05/10 11:53:31;;;;;;;3.27;2.43;;;23.70;59.90;;;;;;5039001;28;20289;-78
2023/05/10 11:56:03;;;;;;;5.03;3.57;;;23.50;55.60;;;;;;5024346;28;20206;-77
2023/05/10 11:58:30;;;;;;;3.30;2.90;;;23.20;56.00;;;;;;5022188;28;20715;-77
2023/05/10 12:00:55;;;;;;;4.03;3.47;;;23.80;54.90;;;;;;5025145;28;20254;-78
2023/05/10 12:03:21;;;;;;;6.38;2.97;;;24.20;54.20;;;;;;5030092;28;20200;-76
2023/05/10 12:05:46;;;;;;;3.08;2.70;;;23.90;54.60;;;;;;5038373;28;20203;-78
2023/05/10 12:08:13;;;;;;;6.00;2.42;;;24.20;52.60;;;;;;5038213;28;20235;-78
2023/05/10 12:10:39;;;;;;;3.92;2.03;;;23.50;53.90;;;;;;5038157;28;20269;-77
2023/05/10 12:13:05;;;;;;;3.17;2.47;;;23.70;55.20;;;;;;5026823;28;20198;-78
2023/05/10 12:15:30;;;;;;;7.07;2.58;;;24.00;54.80;;;;;;5026240;28;20200;-77
2023/05/10 12:17:56;;;;;;;4.65;3.35;;;23.90;53.50;;;;;;5028940;28;20286;-77
2023/05/10 12:20:24;;;;;;;2.65;2.40;;;24.30;53.90;;;;;;5028401;28;20294;-78
2023/05/10 12:22:55;;;;;;;4.55;3.00;;;24.20;53.70;;;;;;5038056;28;20230;-78
2023/05/10 12:25:22;;;;;;;4.97;2.50;;;24.30;55.40;;;;;;5037748;28;20234;-75
2023/05/10 12:27:50;;;;;;;2.67;2.25;;;24.40;53.60;;;;;;5026833;28;20196;-76
2023/05/10 12:30:20;;;;;;;3.72;2.70;;;24.90;52.80;;;;;;5037637;28;20623;-76
2023/05/10 12:32:46;;;;;;;2.65;2.42;;;24.80;51.30;;;;;;5029643;28;20210;-77
2023/05/10 12:35:11;;;;;;;4.03;2.95;;;24.20;53.10;;;;;;5027444;28;20587;-77
2023/05/10 12:37:38;;;;;;;5.38;2.97;;;24.70;55.00;;;;;;5034119;28;20245;-77
2023/05/10 12:40:09;;;;;;;2.85;2.65;;;24.90;53.50;;;;;;5037263;28;20201;-77
2023/05/10 12:42:38;;;;;;;2.38;2.17;;;25.10;53.30;;;;;;5037987;28;20244;-77
2023/05/10 12:45:05;;;;;;;3.03;2.53;;;25.60;49.50;;;;;;5019554;28;20566;-77
2023/05/10 12:47:31;;;;;;;4.75;2.63;;;25.30;50.30;;;;;;5025832;28;20247;-76
2023/05/10 12:49:57;;;;;;;4.95;3.10;;;24.90;51.30;;;;;;5029131;28;20292;-77
2023/05/10 12:52:23;;;;;;;4.07;2.90;;;24.90;52.40;;;;;;5026173;28;20278;-77